C2016 KLAL-KVQQ
Flight info
| Callsign | C2016 |
|---|---|
| Flight time | N/A |
| Altitude | 17500 |
| Route | VFR |
| Aircraft | C30J/M-V/N |
Departure
| Time | 2026-04-26 23:07 |
|---|---|
| Airport | Lakeland Linder International Airport (KLAL) |
Arrival
| Time | N/A |
|---|---|
| Airport | Cecil Airport (KVQQ) |
| Time | Latitude | Longitude | Altitude | Speed | Heading |
|---|---|---|---|---|---|
| 2026-04-26 23:06 | 27.97183 | -82.14785 | 1420 ft | 219 kts | 271° |
| 2026-04-26 23:07 | 27.96690 | -82.16533 | 1426 ft | 254 kts | 238° |
| 2026-04-26 23:07 | 27.95250 | -82.17819 | 1412 ft | 280 kts | 205° |
| 2026-04-26 23:07 | 27.93299 | -82.18341 | 1472 ft | 293 kts | 192° |
| 2026-04-26 23:07 | 27.91261 | -82.18710 | 1554 ft | 293 kts | 192° |
| 2026-04-26 23:08 | 27.89357 | -82.19058 | 2645 ft | 268 kts | 192° |
| 2026-04-26 23:08 | 27.87450 | -82.19062 | 2942 ft | 285 kts | 170° |
| 2026-04-26 23:08 | 27.85505 | -82.18335 | 3016 ft | 301 kts | 161° |
| 2026-04-26 23:08 | 27.83501 | -82.17492 | 3023 ft | 312 kts | 162° |
| 2026-04-26 23:09 | 27.81435 | -82.16624 | 2992 ft | 318 kts | 162° |
| 2026-04-26 23:09 | 27.79522 | -82.15804 | 2995 ft | 281 kts | 161° |
| 2026-04-26 23:09 | 27.77874 | -82.14682 | 3006 ft | 278 kts | 141° |
| 2026-04-26 23:09 | 27.76447 | -82.13207 | 3006 ft | 277 kts | 139° |
| 2026-04-26 23:10 | 27.75047 | -82.11681 | 2999 ft | 280 kts | 135° |
| 2026-04-26 23:10 | 27.73726 | -82.10070 | 2999 ft | 279 kts | 133° |
| 2026-04-26 23:10 | 27.72414 | -82.08443 | 3014 ft | 278 kts | 134° |
| 2026-04-26 23:10 | 27.71134 | -82.06844 | 3010 ft | 277 kts | 134° |
| 2026-04-26 23:11 | 27.69843 | -82.05226 | 2999 ft | 277 kts | 134° |
| 2026-04-26 23:11 | 27.68547 | -82.03598 | 3009 ft | 281 kts | 133° |
| 2026-04-26 23:11 | 27.67227 | -82.01962 | 2996 ft | 281 kts | 134° |
| 2026-04-26 23:11 | 27.65906 | -82.00336 | 3009 ft | 281 kts | 134° |
| 2026-04-26 23:12 | 27.64584 | -81.98713 | 3013 ft | 281 kts | 134° |
| 2026-04-26 23:12 | 27.63259 | -81.97084 | 2998 ft | 280 kts | 134° |
| 2026-04-26 23:12 | 27.61957 | -81.95449 | 3006 ft | 282 kts | 134° |
| 2026-04-26 23:12 | 27.60650 | -81.93794 | 3010 ft | 283 kts | 133° |
| 2026-04-26 23:13 | 27.59337 | -81.92150 | 2994 ft | 282 kts | 133° |
| 2026-04-26 23:13 | 27.58033 | -81.90526 | 3009 ft | 284 kts | 133° |
| 2026-04-26 23:13 | 27.56716 | -81.88894 | 3010 ft | 281 kts | 134° |
| 2026-04-26 23:13 | 27.55408 | -81.87248 | 3010 ft | 282 kts | 133° |
| 2026-04-26 23:14 | 27.54104 | -81.85609 | 3008 ft | 280 kts | 134° |
| 2026-04-26 23:14 | 27.52787 | -81.83962 | 2995 ft | 284 kts | 133° |
| 2026-04-26 23:14 | 27.51462 | -81.82314 | 3015 ft | 282 kts | 134° |
| 2026-04-26 23:14 | 27.50143 | -81.80686 | 2994 ft | 281 kts | 134° |
| 2026-04-26 23:15 | 27.48822 | -81.79050 | 3002 ft | 282 kts | 133° |
| 2026-04-26 23:15 | 27.47500 | -81.77423 | 2986 ft | 281 kts | 134° |
| 2026-04-26 23:15 | 27.46181 | -81.75811 | 2995 ft | 285 kts | 134° |
| 2026-04-26 23:15 | 27.44844 | -81.74164 | 2990 ft | 285 kts | 134° |
| 2026-04-26 23:16 | 27.43507 | -81.72520 | 2986 ft | 283 kts | 134° |
| 2026-04-26 23:16 | 27.42179 | -81.70878 | 3000 ft | 283 kts | 133° |
| 2026-04-26 23:16 | 27.40854 | -81.69247 | 2987 ft | 281 kts | 134° |
| 2026-04-26 23:16 | 27.39547 | -81.67629 | 2994 ft | 287 kts | 133° |
| 2026-04-26 23:17 | 27.38224 | -81.65959 | 2988 ft | 281 kts | 130° |
| 2026-04-26 23:17 | 27.36994 | -81.64258 | 2990 ft | 280 kts | 130° |
| 2026-04-26 23:17 | 27.35784 | -81.62546 | 2984 ft | 280 kts | 129° |
| 2026-04-26 23:18 | 27.31133 | -81.55935 | 2987 ft | 283 kts | 129° |
| 2026-04-26 23:18 | 27.29907 | -81.54201 | 2979 ft | 284 kts | 130° |
| 2026-04-26 23:19 | 27.28679 | -81.52463 | 2983 ft | 281 kts | 129° |
| 2026-04-26 23:19 | 27.27473 | -81.50771 | 2988 ft | 277 kts | 129° |
| 2026-04-26 23:19 | 27.26257 | -81.49082 | 2972 ft | 279 kts | 130° |
| 2026-04-26 23:19 | 27.25041 | -81.47387 | 2978 ft | 277 kts | 130° |
| 2026-04-26 23:20 | 27.23834 | -81.45687 | 2971 ft | 279 kts | 130° |
| 2026-04-26 23:20 | 27.22621 | -81.43967 | 2975 ft | 280 kts | 130° |
| 2026-04-26 23:20 | 27.21373 | -81.42334 | 2955 ft | 279 kts | 133° |
| 2026-04-26 23:20 | 27.20058 | -81.40717 | 2972 ft | 281 kts | 133° |
| 2026-04-26 23:21 | 27.19614 | -81.40172 | 2975 ft | 279 kts | 133° |